Time,TemperatureF,DewpointF,PressureIn,WindDirection,WindDirectionDegrees,WindSpeedMPH,WindSpeedGustMPH,Humidity,HourlyPrecipIn,Conditions,Clouds,dailyrainin,SoftwareType,DateUTC
2013-01-02 07:30:00,17.0,11.6,30.32,North,0,0.0,0.0,79,0.00,,---,0.00,VWS V14.00,2013-01-02 13:30:00,
2013-01-02 08:07:00,17.0,11.6,30.32,North,0,0.0,0.0,79,0.00,,---,0.00,VWS V14.00,2013-01-02 14:07:00,
2013-01-02 08:12:00,16.4,11.0,30.32,SE,133,0.0,0.0,79,0.00,,---,0.00,VWS V14.00,2013-01-02 14:12:00,
2013-01-02 08:17:00,16.2,10.8,30.34,SE,133,0.0,0.0,79,0.00,,---,0.00,VWS V14.00,2013-01-02 14:17:00,
2013-01-02 08:22:00,16.2,10.8,30.34,SE,133,0.0,0.0,79,0.00,,---,0.00,VWS V14.00,2013-01-02 14:22:00,
2013-01-02 08:23:00,16.2,10.8,30.34,SE,133,0.0,0.0,79,0.00,,---,0.00,VWS V14.00,2013-01-02 14:23:00,
2013-01-02 08:27:00,15.9,10.6,30.34,SE,133,0.0,0.0,79,0.00,,---,0.00,VWS V14.00,2013-01-02 14:27:00,
2013-01-02 08:28:00,15.9,10.6,30.34,SE,133,0.0,0.0,79,0.00,,---,0.00,VWS V14.00,2013-01-02 14:28:00,
2013-01-02 08:32:00,15.9,10.6,30.34,SE,133,0.0,0.0,79,0.00,,---,0.00,VWS V14.00,2013-01-02 14:32:00,
2013-01-02 08:33:00,15.9,10.6,30.34,SE,133,0.0,0.0,79,0.00,,---,0.00,VWS V14.00,2013-01-02 14:33:00,
2013-01-02 08:37:00,15.9,10.8,30.34,SE,133,0.0,0.0,80,0.00,,---,0.00,VWS V14.00,2013-01-02 14:37:00,
2013-01-02 08:38:00,15.9,10.8,30.34,SE,133,0.0,0.0,80,0.00,,---,0.00,VWS V14.00,2013-01-02 14:38:00,
2013-01-02 08:42:00,16.1,11.0,30.34,SE,133,0.0,0.0,80,0.00,,---,0.00,VWS V14.00,2013-01-02 14:42:00,
2013-01-02 08:43:00,16.2,11.1,30.34,SE,133,0.0,0.0,80,0.00,,---,0.00,VWS V14.00,2013-01-02 14:43:00,
2013-01-02 08:47:00,16.7,11.6,30.34,SE,133,0.0,0.0,80,0.00,,---,0.00,VWS V14.00,2013-01-02 14:47:00,
2013-01-02 08:48:00,16.7,11.6,30.34,SE,133,0.0,0.0,80,0.00,,---,0.00,VWS V14.00,2013-01-02 14:48:00,
2013-01-02 08:52:00,18.8,14.5,30.34,SE,133,0.0,0.0,83,0.00,,---,0.00,VWS V14.00,2013-01-02 14:52:00,
2013-01-02 08:53:00,18.9,14.6,30.34,SE,133,0.0,0.0,83,0.00,,---,0.00,VWS V14.00,2013-01-02 14:53:00,
2013-01-02 08:54:00,19.1,15.1,30.34,SE,133,0.0,0.0,84,0.00,,---,0.00,VWS V14.00,2013-01-02 14:54:00,
2013-01-02 08:58:00,19.7,15.4,30.34,SE,133,0.0,0.0,83,0.00,,---,0.00,VWS V14.00,2013-01-02 14:58:00,
2013-01-02 08:59:00,19.9,15.6,30.32,SE,133,0.0,0.0,83,0.00,,---,0.00,VWS V14.00,2013-01-02 14:59:00,
2013-01-02 09:03:00,20.6,16.3,30.32,SE,133,0.0,0.0,83,0.00,,---,0.00,VWS V14.00,2013-01-02 15:03:00,
2013-01-02 09:04:00,20.8,16.2,30.32,SE,133,0.0,0.0,82,0.00,,---,0.00,VWS V14.00,2013-01-02 15:04:00,
2013-01-02 09:08:00,21.6,15.8,30.32,SE,133,0.0,0.0,78,0.00,,---,0.00,VWS V14.00,2013-01-02 15:08:00,
2013-01-02 09:09:00,21.9,15.5,30.32,SE,133,0.0,0.0,76,0.00,,---,0.00,VWS V14.00,2013-01-02 15:09:00,
2013-01-02 09:13:00,22.7,15.7,30.32,SE,133,0.0,0.0,74,0.00,,---,0.00,VWS V14.00,2013-01-02 15:13:00,
2013-01-02 09:14:00,23.0,15.6,30.32,SE,133,0.0,0.0,73,0.00,,---,0.00,VWS V14.00,2013-01-02 15:14:00,
2013-01-02 09:18:00,24.4,17.3,30.32,SE,133,0.0,0.0,74,0.00,,---,0.00,VWS V14.00,2013-01-02 15:18:00,
2013-01-02 09:19:00,24.4,17.3,30.32,SE,133,0.0,0.0,74,0.00,,---,0.00,VWS V14.00,2013-01-02 15:19:00,
2013-01-02 09:23:00,27.0,18.9,30.32,SE,133,0.0,0.0,71,0.00,,---,0.00,VWS V14.00,2013-01-02 15:23:00,
2013-01-02 09:24:00,27.2,19.1,30.32,SE,133,0.0,0.0,71,0.00,,---,0.00,VWS V14.00,2013-01-02 15:24:00,
2013-01-02 09:28:00,28.2,19.7,30.32,NNE,20,0.0,0.0,70,0.00,,---,0.00,VWS V14.00,2013-01-02 15:28:00,
2013-01-02 09:29:00,28.5,19.6,30.28,NNE,20,0.0,0.0,69,0.00,,---,0.00,VWS V14.00,2013-01-02 15:29:00,
2013-01-02 09:33:00,29.7,18.7,30.28,NNE,20,0.0,0.0,63,0.00,,---,0.00,VWS V14.00,2013-01-02 15:33:00,
2013-01-02 09:34:00,29.7,19.0,30.28,NNE,20,0.0,0.0,64,0.00,,---,0.00,VWS V14.00,2013-01-02 15:34:00,
2013-01-02 09:35:00,29.7,19.0,30.28,NNE,20,0.0,0.0,64,0.00,,---,0.00,VWS V14.00,2013-01-02 15:35:00,
2013-01-02 09:38:00,30.0,18.2,30.28,NNE,20,0.0,0.0,61,0.00,,---,0.00,VWS V14.00,2013-01-02 15:38:00,
2013-01-02 09:39:00,30.1,18.3,30.28,NNE,20,0.0,0.0,61,0.00,,---,0.00,VWS V14.00,2013-01-02 15:39:00,
2013-01-02 09:40:00,30.3,17.7,30.28,NNE,20,0.0,0.0,59,0.00,,---,0.00,VWS V14.00,2013-01-02 15:40:00,
2013-01-02 09:43:00,30.4,17.8,30.28,NNE,20,0.0,0.0,59,0.00,,---,0.00,VWS V14.00,2013-01-02 15:43:00,
2013-01-02 09:44:00,31.2,18.5,30.27,NNE,20,0.0,0.0,59,0.00,,---,0.00,VWS V14.00,2013-01-02 15:44:00,
2013-01-02 09:45:00,31.5,18.8,30.27,NNE,20,0.0,0.0,59,0.00,,---,0.00,VWS V14.00,2013-01-02 15:45:00,
2013-01-02 09:48:00,31.6,18.9,30.27,NNE,20,0.0,0.0,59,0.00,,---,0.00,VWS V14.00,2013-01-02 15:48:00,
2013-01-02 09:49:00,31.6,18.9,30.27,NNE,20,0.0,0.0,59,0.00,,---,0.00,VWS V14.00,2013-01-02 15:49:00,
2013-01-02 09:50:00,31.6,18.9,30.27,NNE,20,0.0,0.0,59,0.00,,---,0.00,VWS V14.00,2013-01-02 15:50:00,
2013-01-02 09:53:00,33.1,20.4,30.27,NNE,20,0.0,0.0,59,0.00,,---,0.00,VWS V14.00,2013-01-02 15:53:00,
2013-01-02 09:54:00,33.1,20.4,30.27,NNE,20,0.0,0.0,59,0.00,,---,0.00,VWS V14.00,2013-01-02 15:54:00,
2013-01-02 09:55:00,33.1,20.4,30.27,NNE,20,0.0,0.0,59,0.00,,---,0.00,VWS V14.00,2013-01-02 15:55:00,
2013-01-02 09:58:00,34.3,21.5,30.27,NNE,20,0.0,0.0,59,0.00,,---,0.00,VWS V14.00,2013-01-02 15:58:00,
2013-01-02 09:59:00,34.3,21.5,30.25,NNE,20,0.0,0.0,59,0.00,,---,0.00,VWS V14.00,2013-01-02 15:59:00,
2013-01-02 10:00:00,34.3,21.5,30.25,NNE,20,0.0,0.0,59,0.00,,---,0.00,VWS V14.00,2013-01-02 16:00:00,
2013-01-02 10:03:00,34.3,21.5,30.25,NNE,20,0.0,0.0,59,0.00,,---,0.00,VWS V14.00,2013-01-02 16:03:00,
2013-01-02 10:04:00,34.3,21.5,30.25,NNE,20,0.0,0.0,59,0.00,,---,0.00,VWS V14.00,2013-01-02 16:04:00,
2013-01-02 10:05:00,34.3,21.5,30.25,NNE,20,0.0,0.0,59,0.00,,---,0.00,VWS V14.00,2013-01-02 16:05:00,
2013-01-02 10:09:00,34.3,21.5,30.25,NNE,20,0.0,0.0,59,0.00,,---,0.00,VWS V14.00,2013-01-02 16:09:00,
2013-01-02 10:10:00,34.3,21.5,30.25,NNE,20,0.0,0.0,59,0.00,,---,0.00,VWS V14.00,2013-01-02 16:10:00,
2013-01-02 10:14:00,36.2,23.3,30.25,NNE,20,0.0,0.0,59,0.00,,---,0.00,VWS V14.00,2013-01-02 16:14:00,
2013-01-02 10:15:00,36.2,23.3,30.25,NNE,20,0.0,0.0,59,0.00,,---,0.00,VWS V14.00,2013-01-02 16:15:00,
2013-01-02 10:19:00,36.2,23.3,30.25,NNE,20,0.0,0.0,59,0.00,,---,0.00,VWS V14.00,2013-01-02 16:19:00,
2013-01-02 10:20:00,36.2,23.3,30.25,NNE,20,0.0,0.0,59,0.00,,---,0.00,VWS V14.00,2013-01-02 16:20:00,
2013-01-02 10:21:00,36.2,23.3,30.25,NNE,20,0.0,0.0,59,0.00,,---,0.00,VWS V14.00,2013-01-02 16:21:00,
2013-01-02 10:24:00,36.2,23.3,30.25,NNE,20,0.0,0.0,59,0.00,,---,0.00,VWS V14.00,2013-01-02 16:24:00,
2013-01-02 10:25:00,36.2,23.3,30.25,NNE,20,0.0,0.0,59,0.00,,---,0.00,VWS V14.00,2013-01-02 16:25:00,
2013-01-02 10:26:00,36.2,23.3,30.25,NNE,20,0.0,0.0,59,0.00,,---,0.00,VWS V14.00,2013-01-02 16:26:00,
2013-01-02 10:29:00,36.2,23.3,30.24,NNE,20,0.0,0.0,59,0.00,,---,0.00,VWS V14.00,2013-01-02 16:29:00,
2013-01-02 10:30:00,36.2,23.3,30.24,NNE,20,0.0,0.0,59,0.00,,---,0.00,VWS V14.00,2013-01-02 16:30:00,
2013-01-02 10:31:00,36.2,23.3,30.24,NNE,20,0.0,0.0,59,0.00,,---,0.00,VWS V14.00,2013-01-02 16:31:00,
2013-01-02 10:34:00,38.9,25.8,30.24,NNE,20,0.0,0.0,59,0.00,,---,0.00,VWS V14.00,2013-01-02 16:34:00,
2013-01-02 10:35:00,39.1,26.0,30.24,NNE,20,0.0,0.0,59,0.00,,---,0.00,VWS V14.00,2013-01-02 16:35:00,
2013-01-02 10:36:00,39.2,26.1,30.24,NNE,20,0.0,0.0,59,0.00,,---,0.00,VWS V14.00,2013-01-02 16:36:00,
2013-01-02 10:39:00,39.5,16.0,30.24,NNE,20,0.0,0.0,38,0.00,,---,0.00,VWS V14.00,2013-01-02 16:39:00,
2013-01-02 10:40:00,39.5,16.0,30.24,NNE,20,0.0,0.0,38,0.00,,---,0.00,VWS V14.00,2013-01-02 16:40:00,
2013-01-02 10:41:00,39.5,14.8,30.24,NNE,20,0.0,0.0,36,0.00,,---,0.00,VWS V14.00,2013-01-02 16:41:00,
2013-01-02 10:44:00,39.8,16.3,30.22,NNE,20,0.0,0.0,38,0.00,,---,0.00,VWS V14.00,2013-01-02 16:44:00,
2013-01-02 10:45:00,39.8,16.3,30.22,NNE,20,0.0,0.0,38,0.00,,---,0.00,VWS V14.00,2013-01-02 16:45:00,
2013-01-02 10:46:00,39.9,16.4,30.22,NNE,20,0.0,0.0,38,0.00,,---,0.00,VWS V14.00,2013-01-02 16:46:00,
2013-01-02 10:49:00,40.6,16.4,30.22,NNE,20,0.0,0.0,37,0.00,,---,0.00,VWS V14.00,2013-01-02 16:49:00,
2013-01-02 10:50:00,40.6,16.4,30.22,NNE,20,0.0,0.0,37,0.00,,---,0.00,VWS V14.00,2013-01-02 16:50:00,
2013-01-02 10:51:00,40.6,16.4,30.22,NNE,20,0.0,0.0,37,0.00,,---,0.00,VWS V14.00,2013-01-02 16:51:00,
2013-01-02 10:54:00,40.9,14.7,30.22,NNE,20,0.0,0.0,34,0.00,,---,0.00,VWS V14.00,2013-01-02 16:54:00,
2013-01-02 10:55:00,41.2,15.0,30.22,NNE,20,0.0,0.0,34,0.00,,---,0.00,VWS V14.00,2013-01-02 16:55:00,
2013-01-02 10:56:00,41.2,15.0,30.22,NNE,20,0.0,0.0,34,0.00,,---,0.00,VWS V14.00,2013-01-02 16:56:00,
2013-01-02 10:59:00,41.5,15.2,30.21,NNE,20,0.0,0.0,34,0.00,,---,0.00,VWS V14.00,2013-01-02 16:59:00,
2013-01-02 11:00:00,41.5,15.2,30.21,NNE,20,0.0,0.0,34,0.00,,---,0.00,VWS V14.00,2013-01-02 17:00:00,
2013-01-02 11:01:00,42.2,15.9,30.21,NNE,20,0.0,0.0,34,0.00,,---,0.00,VWS V14.00,2013-01-02 17:01:00,
2013-01-02 11:02:00,42.2,15.9,30.21,NNE,20,0.0,0.0,34,0.00,,---,0.00,VWS V14.00,2013-01-02 17:02:00,
2013-01-02 11:04:00,42.6,15.5,30.21,NNE,20,0.0,0.0,33,0.00,,---,0.00,VWS V14.00,2013-01-02 17:04:00,
2013-01-02 11:05:00,42.6,15.5,30.21,NNE,20,0.0,0.0,33,0.00,,---,0.00,VWS V14.00,2013-01-02 17:05:00,
2013-01-02 11:07:00,42.9,15.8,30.21,NNE,20,0.0,0.0,33,0.00,,---,0.00,VWS V14.00,2013-01-02 17:07:00,
2013-01-02 11:09:00,43.2,16.1,30.21,NNE,20,0.0,0.0,33,0.00,,---,0.00,VWS V14.00,2013-01-02 17:09:00,
2013-01-02 11:10:00,43.8,16.6,30.21,NNE,20,0.0,0.0,33,0.00,,---,0.00,VWS V14.00,2013-01-02 17:10:00,
2013-01-02 11:12:00,44.2,15.5,30.21,NNE,20,0.0,0.0,31,0.00,,---,0.00,VWS V14.00,2013-01-02 17:12:00,
2013-01-02 11:14:00,44.6,15.1,30.18,NNE,21,0.0,0.0,30,0.00,,---,0.00,VWS V14.00,2013-01-02 17:14:00,
2013-01-02 11:15:00,44.5,13.4,30.18,NNE,21,0.0,0.0,28,0.00,,---,0.00,VWS V14.00,2013-01-02 17:15:00,
2013-01-02 11:17:00,44.2,12.4,30.18,NNE,21,0.0,0.0,27,0.00,,---,0.00,VWS V14.00,2013-01-02 17:17:00,
2013-01-02 11:20:00,44.3,14.1,30.18,NNE,21,0.0,0.0,29,0.00,,---,0.00,VWS V14.00,2013-01-02 17:20:00,
2013-01-02 11:22:00,44.3,13.3,30.18,NNE,21,0.0,0.0,28,0.00,,---,0.00,VWS V14.00,2013-01-02 17:22:00,
2013-01-02 11:25:00,44.9,13.8,30.18,NNE,21,0.0,0.0,28,0.00,,---,0.00,VWS V14.00,2013-01-02 17:25:00,
2013-01-02 11:26:00,45.1,14.0,30.18,NNE,21,0.0,0.0,28,0.00,,---,0.00,VWS V14.00,2013-01-02 17:26:00,
2013-01-02 11:27:00,45.2,13.2,30.18,NNE,21,0.0,0.0,27,0.00,,---,0.00,VWS V14.00,2013-01-02 17:27:00,
2013-01-02 11:30:00,45.4,13.4,30.17,NNE,21,0.0,0.0,27,0.00,,---,0.00,VWS V14.00,2013-01-02 17:30:00,
2013-01-02 11:31:00,45.4,13.4,30.17,North,8,0.0,0.0,27,0.00,,---,0.00,VWS V14.00,2013-01-02 17:31:00,
2013-01-02 11:32:00,45.4,13.4,30.17,North,8,0.0,0.0,27,0.00,,---,0.00,VWS V14.00,2013-01-02 17:32:00,
2013-01-02 11:33:00,45.4,13.4,30.17,North,8,0.0,0.0,27,0.00,,---,0.00,VWS V14.00,2013-01-02 17:33:00,
2013-01-02 11:35:00,45.4,13.4,30.17,North,8,0.0,0.0,27,0.00,,---,0.00,VWS V14.00,2013-01-02 17:35:00,
2013-01-02 11:36:00,45.4,13.4,30.17,NNE,23,0.0,0.0,27,0.00,,---,0.00,VWS V14.00,2013-01-02 17:36:00,
2013-01-02 11:37:00,45.4,13.4,30.17,NNE,23,0.0,0.0,27,0.00,,---,0.00,VWS V14.00,2013-01-02 17:37:00,
2013-01-02 11:38:00,45.4,13.4,30.17,NNE,23,0.0,0.0,27,0.00,,---,0.00,VWS V14.00,2013-01-02 17:38:00,
2013-01-02 11:40:00,46.2,14.9,30.17,NNE,23,0.0,0.0,28,0.00,,---,0.00,VWS V14.00,2013-01-02 17:40:00,
2013-01-02 11:41:00,46.2,14.9,30.17,NNE,27,0.0,0.0,28,0.00,,---,0.00,VWS V14.00,2013-01-02 17:41:00,
2013-01-02 11:42:00,46.2,14.1,30.17,NNE,27,0.0,0.0,27,0.00,,---,0.00,VWS V14.00,2013-01-02 17:42:00,
2013-01-02 11:43:00,46.7,14.5,30.17,NNE,27,0.0,0.0,27,0.00,,---,0.00,VWS V14.00,2013-01-02 17:43:00,
2013-01-02 11:45:00,46.8,14.6,30.15,NNE,27,0.0,0.0,27,0.00,,---,0.00,VWS V14.00,2013-01-02 17:45:00,
2013-01-02 11:46:00,46.8,14.6,30.15,NNE,27,0.0,0.0,27,0.00,,---,0.00,VWS V14.00,2013-01-02 17:46:00,
2013-01-02 11:47:00,47.0,14.8,30.15,NNE,27,0.0,0.0,27,0.00,,---,0.00,VWS V14.00,2013-01-02 17:47:00,
2013-01-02 11:48:00,47.1,14.9,30.15,NNE,27,0.0,0.0,27,0.00,,---,0.00,VWS V14.00,2013-01-02 17:48:00,
2013-01-02 11:50:00,47.3,15.0,30.15,NNE,27,0.0,0.0,27,0.00,,---,0.00,VWS V14.00,2013-01-02 17:50:00,
2013-01-02 11:51:00,47.3,15.0,30.15,NNE,27,0.0,0.0,27,0.00,,---,0.00,VWS V14.00,2013-01-02 17:51:00,
2013-01-02 11:52:00,47.3,14.2,30.15,NNE,32,0.0,0.0,26,0.00,,---,0.00,VWS V14.00,2013-01-02 17:52:00,
2013-01-02 11:53:00,47.4,14.2,30.15,NNE,32,0.0,0.0,26,0.00,,---,0.00,VWS V14.00,2013-01-02 17:53:00,
2013-01-02 11:55:00,47.3,13.3,30.15,NE,42,0.0,0.0,25,0.00,,---,0.00,VWS V14.00,2013-01-02 17:55:00,
2013-01-02 11:56:00,47.1,13.1,30.15,NE,42,0.0,0.0,25,0.00,,---,0.00,VWS V14.00,2013-01-02 17:56:00,
2013-01-02 11:57:00,47.3,13.3,30.15,NE,42,0.0,0.0,25,0.00,,---,0.00,VWS V14.00,2013-01-02 17:57:00,
2013-01-02 11:58:00,47.4,13.4,30.15,NE,42,0.0,0.0,25,0.00,,---,0.00,VWS V14.00,2013-01-02 17:58:00,
2013-01-02 12:00:00,47.3,13.3,30.15,NE,44,0.0,0.0,25,0.00,,---,0.00,VWS V14.00,2013-01-02 18:00:00,
2013-01-02 12:01:00,47.4,15.1,30.15,NE,44,0.0,0.0,27,0.00,,---,0.00,VWS V14.00,2013-01-02 18:01:00,
2013-01-02 12:03:00,47.6,15.3,30.15,NE,45,0.0,0.0,27,0.00,,---,0.00,VWS V14.00,2013-01-02 18:03:00,
2013-01-02 12:05:00,47.6,14.4,30.15,NE,45,0.0,0.0,26,0.00,,---,0.00,VWS V14.00,2013-01-02 18:05:00,
2013-01-02 12:06:00,47.6,14.4,30.15,NE,45,0.0,0.0,26,0.00,,---,0.00,VWS V14.00,2013-01-02 18:06:00,
2013-01-02 12:08:00,47.7,15.4,30.15,NE,47,0.0,0.0,27,0.00,,---,0.00,VWS V14.00,2013-01-02 18:08:00,
2013-01-02 12:10:00,47.7,15.4,30.15,NE,56,0.0,3.0,27,0.00,,---,0.00,VWS V14.00,2013-01-02 18:10:00,
2013-01-02 12:12:00,47.7,14.5,30.15,ENE,59,2.0,3.0,26,0.00,,---,0.00,VWS V14.00,2013-01-02 18:12:00,
2013-01-02 12:13:00,47.7,14.5,30.15,ENE,59,0.0,3.0,26,0.00,,---,0.00,VWS V14.00,2013-01-02 18:13:00,
2013-01-02 12:15:00,48.0,16.5,30.14,East,82,0.0,8.0,28,0.00,,---,0.00,VWS V14.00,2013-01-02 18:15:00,
2013-01-02 12:17:00,47.7,16.2,30.14,East,82,2.0,8.0,28,0.00,,---,0.00,VWS V14.00,2013-01-02 18:17:00,
2013-01-02 12:18:00,47.9,15.6,30.14,East,83,2.0,8.0,27,0.00,,---,0.00,VWS V14.00,2013-01-02 18:18:00,
2013-01-02 12:21:00,48.2,16.6,30.14,East,89,2.0,8.0,28,0.00,,---,0.00,VWS V14.00,2013-01-02 18:21:00,
2013-01-02 12:22:00,48.2,16.6,30.14,East,89,3.0,8.0,28,0.00,,---,0.00,VWS V14.00,2013-01-02 18:22:00,
2013-01-02 12:23:00,48.0,16.5,30.14,East,89,0.0,8.0,28,0.00,,---,0.00,VWS V14.00,2013-01-02 18:23:00,
2013-01-02 12:26:00,47.6,16.1,30.14,East,89,0.0,8.0,28,0.00,,---,0.00,VWS V14.00,2013-01-02 18:26:00,
2013-01-02 12:27:00,47.7,16.2,30.14,East,90,7.0,8.0,28,0.00,,---,0.00,VWS V14.00,2013-01-02 18:27:00,
2013-01-02 12:28:00,47.6,16.9,30.14,East,90,0.0,8.0,29,0.00,,---,0.00,VWS V14.00,2013-01-02 18:28:00,
2013-01-02 12:31:00,47.6,16.1,30.13,East,93,0.0,1.0,28,0.00,,---,0.00,VWS V14.00,2013-01-02 18:31:00,
2013-01-02 12:32:00,47.7,16.2,30.13,East,93,0.0,3.0,28,0.00,,---,0.00,VWS V14.00,2013-01-02 18:32:00,
2013-01-02 12:33:00,47.6,16.9,30.13,East,93,0.0,3.0,29,0.00,,---,0.00,VWS V14.00,2013-01-02 18:33:00,
2013-01-02 12:36:00,47.7,17.0,30.13,East,97,0.0,6.0,29,0.00,,---,0.00,VWS V14.00,2013-01-02 18:36:00,
2013-01-02 12:37:00,47.9,17.2,30.13,East,97,1.0,6.0,29,0.00,,---,0.00,VWS V14.00,2013-01-02 18:37:00,
2013-01-02 12:38:00,48.0,17.3,30.13,East,97,0.0,6.0,29,0.00,,---,0.00,VWS V14.00,2013-01-02 18:38:00,
2013-01-02 12:41:00,48.8,17.2,30.13,East,95,0.0,6.0,28,0.00,,---,0.00,VWS V14.00,2013-01-02 18:41:00,
2013-01-02 12:42:00,48.5,17.7,30.13,East,95,0.0,6.0,29,0.00,,---,0.00,VWS V14.00,2013-01-02 18:42:00,
2013-01-02 12:43:00,48.6,17.0,30.13,East,95,2.0,6.0,28,0.00,,---,0.00,VWS V14.00,2013-01-02 18:43:00,
2013-01-02 12:44:00,48.5,16.9,30.11,East,96,1.0,6.0,28,0.00,,---,0.00,VWS V14.00,2013-01-02 18:44:00,
2013-01-02 12:46:00,48.8,18.0,30.11,East,89,5.0,6.0,29,0.00,,---,0.00,VWS V14.00,2013-01-02 18:46:00,
2013-01-02 12:47:00,48.6,17.0,30.11,East,86,1.0,7.0,28,0.00,,---,0.00,VWS V14.00,2013-01-02 18:47:00,
2013-01-02 12:48:00,48.6,16.1,30.11,East,85,0.0,7.0,27,0.00,,---,0.00,VWS V14.00,2013-01-02 18:48:00,
2013-01-02 12:49:00,48.6,17.8,30.11,East,82,8.0,8.0,29,0.00,,---,0.00,VWS V14.00,2013-01-02 18:49:00,
2013-01-02 12:51:00,49.1,18.2,30.11,East,88,0.0,8.0,29,0.00,,---,0.00,VWS V14.00,2013-01-02 18:51:00,
2013-01-02 12:52:00,49.1,17.4,30.11,East,88,0.0,8.0,28,0.00,,---,0.00,VWS V14.00,2013-01-02 18:52:00,
2013-01-02 12:53:00,49.1,17.4,30.11,East,88,0.0,8.0,28,0.00,,---,0.00,VWS V14.00,2013-01-02 18:53:00,
2013-01-02 12:54:00,49.1,17.4,30.11,East,86,0.0,8.0,28,0.00,,---,0.00,VWS V14.00,2013-01-02 18:54:00,
2013-01-02 12:56:00,49.8,18.0,30.11,East,90,0.0,8.0,28,0.00,,---,0.00,VWS V14.00,2013-01-02 18:56:00,
2013-01-02 12:57:00,49.6,17.9,30.11,East,95,6.0,8.0,28,0.00,,---,0.00,VWS V14.00,2013-01-02 18:57:00,
2013-01-02 12:59:00,49.5,16.9,30.11,East,96,0.0,8.0,27,0.00,,---,0.00,VWS V14.00,2013-01-02 18:59:00,
2013-01-02 13:01:00,49.8,17.2,30.09,East,100,3.0,10.0,27,0.00,,---,0.00,VWS V14.00,2013-01-02 19:01:00,
2013-01-02 13:02:00,49.9,17.3,30.09,East,100,3.0,10.0,27,0.00,,---,0.00,VWS V14.00,2013-01-02 19:02:00,
2013-01-02 13:04:00,49.5,16.9,30.09,East,100,3.0,10.0,27,0.00,,---,0.00,VWS V14.00,2013-01-02 19:04:00,
2013-01-02 13:07:00,49.9,18.1,30.09,ESE,102,0.0,10.0,28,0.00,,---,0.00,VWS V14.00,2013-01-02 19:07:00,
2013-01-02 13:09:00,50.1,18.3,30.09,ESE,102,7.0,10.0,28,0.00,,---,0.00,VWS V14.00,2013-01-02 19:09:00,
2013-01-02 13:10:00,49.8,18.0,30.09,East,100,0.0,10.0,28,0.00,,---,0.00,VWS V14.00,2013-01-02 19:10:00,
2013-01-02 13:12:00,50.2,18.4,30.09,ESE,102,2.0,10.0,28,0.00,,---,0.00,VWS V14.00,2013-01-02 19:12:00,
2013-01-02 13:14:00,50.5,17.8,30.07,ESE,102,0.0,10.0,27,0.00,,---,0.00,VWS V14.00,2013-01-02 19:14:00,
2013-01-02 13:15:00,50.5,17.8,30.07,ESE,103,0.0,10.0,27,0.00,,---,0.00,VWS V14.00,2013-01-02 19:15:00,
2013-01-02 13:17:00,50.5,18.6,30.07,SE,144,0.0,11.0,28,0.00,,---,0.00,VWS V14.00,2013-01-02 19:17:00,
2013-01-02 13:18:00,50.7,18.8,30.07,SE,144,0.0,11.0,28,0.00,,---,0.00,VWS V14.00,2013-01-02 19:18:00,
2013-01-02 13:19:00,50.5,18.6,30.07,SE,144,0.0,11.0,28,0.00,,---,0.00,VWS V14.00,2013-01-02 19:19:00,
2013-01-02 13:20:00,50.4,18.5,30.07,SE,144,0.0,11.0,28,0.00,,---,0.00,VWS V14.00,2013-01-02 19:20:00,
2013-01-02 13:22:00,50.7,18.0,30.07,SE,143,0.0,11.0,27,0.00,,---,0.00,VWS V14.00,2013-01-02 19:22:00,
2013-01-02 13:23:00,50.7,18.0,30.07,SE,143,0.0,11.0,27,0.00,,---,0.00,VWS V14.00,2013-01-02 19:23:00,
2013-01-02 13:24:00,50.8,18.9,30.07,SE,143,1.0,11.0,28,0.00,,---,0.00,VWS V14.00,2013-01-02 19:24:00,
2013-01-02 13:25:00,51.1,19.1,30.07,SE,141,3.0,11.0,28,0.00,,---,0.00,VWS V14.00,2013-01-02 19:25:00,
2013-01-02 13:27:00,51.6,21.2,30.07,SSE,154,1.0,11.0,30,0.00,,---,0.00,VWS V14.00,2013-01-02 19:27:00,
2013-01-02 13:28:00,51.4,19.4,30.07,SSE,157,5.0,11.0,28,0.00,,---,0.00,VWS V14.00,2013-01-02 19:28:00,
2013-01-02 13:29:00,51.6,19.6,30.06,SSE,155,1.0,11.0,28,0.00,,---,0.00,VWS V14.00,2013-01-02 19:29:00,
2013-01-02 13:30:00,51.6,20.4,30.06,SSE,155,6.0,6.0,29,0.00,,---,0.00,VWS V14.00,2013-01-02 19:30:00,
2013-01-02 13:32:00,51.9,20.7,30.06,SSE,147,2.0,7.0,29,0.00,,---,0.00,VWS V14.00,2013-01-02 19:32:00,
2013-01-02 13:33:00,51.7,21.3,30.06,SE,144,7.0,7.0,30,0.00,,---,0.00,VWS V14.00,2013-01-02 19:33:00,
2013-01-02 13:35:00,51.7,21.3,30.06,SSE,147,2.0,7.0,30,0.00,,---,0.00,VWS V14.00,2013-01-02 19:35:00,
2013-01-02 13:37:00,51.9,20.7,30.06,SE,136,5.0,8.0,29,0.00,,---,0.00,VWS V14.00,2013-01-02 19:37:00,
2013-01-02 13:38:00,51.7,20.5,30.06,SE,137,4.0,8.0,29,0.00,,---,0.00,VWS V14.00,2013-01-02 19:38:00,
2013-01-02 13:40:00,52.0,19.9,30.06,SE,144,5.0,8.0,28,0.00,,---,0.00,VWS V14.00,2013-01-02 19:40:00,
2013-01-02 13:42:00,51.7,21.3,30.06,SSE,154,0.0,8.0,30,0.00,,---,0.00,VWS V14.00,2013-01-02 19:42:00,
2013-01-02 13:43:00,51.9,20.7,30.06,SSE,155,0.0,8.0,29,0.00,,---,0.00,VWS V14.00,2013-01-02 19:43:00,
2013-01-02 13:45:00,52.0,19.9,30.06,SE,130,6.0,8.0,28,0.00,,---,0.00,VWS V14.00,2013-01-02 19:45:00,
2013-01-02 13:47:00,52.2,20.9,30.06,South,182,2.0,8.0,29,0.00,,---,0.00,VWS V14.00,2013-01-02 19:47:00,
2013-01-02 13:48:00,52.2,20.9,30.06,SE,144,7.0,8.0,29,0.00,,---,0.00,VWS V14.00,2013-01-02 19:48:00,
2013-01-02 13:50:00,51.6,19.6,30.06,SE,128,2.0,8.0,28,0.00,,---,0.00,VWS V14.00,2013-01-02 19:50:00,
2013-01-02 13:52:00,51.4,20.2,30.06,SSE,157,2.0,8.0,29,0.00,,---,0.00,VWS V14.00,2013-01-02 19:52:00,
2013-01-02 13:53:00,51.6,20.4,30.06,South,176,3.0,8.0,29,0.00,,---,0.00,VWS V14.00,2013-01-02 19:53:00,
2013-01-02 13:55:00,51.6,20.4,30.06,SSE,154,0.0,8.0,29,0.00,,---,0.00,VWS V14.00,2013-01-02 19:55:00,
2013-01-02 13:57:00,51.9,20.7,30.06,SSE,165,0.0,8.0,29,0.00,,---,0.00,VWS V14.00,2013-01-02 19:57:00,
2013-01-02 13:58:00,51.7,19.7,30.06,SSE,160,5.0,8.0,28,0.00,,---,0.00,VWS V14.00,2013-01-02 19:58:00,
2013-01-02 14:00:00,51.7,20.5,30.05,South,172,2.0,6.0,29,0.00,,---,0.00,VWS V14.00,2013-01-02 20:00:00,
2013-01-02 14:02:00,51.6,19.6,30.05,SE,130,8.0,11.0,28,0.00,,---,0.00,VWS V14.00,2013-01-02 20:02:00,
2013-01-02 14:03:00,51.4,18.6,30.05,SE,128,2.0,12.0,27,0.00,,---,0.00,VWS V14.00,2013-01-02 20:03:00,
2013-01-02 14:05:00,51.4,20.2,30.05,SE,141,0.0,12.0,29,0.00,,---,0.00,VWS V14.00,2013-01-02 20:05:00,
2013-01-02 14:07:00,51.4,20.2,30.05,SSE,158,0.0,12.0,29,0.00,,---,0.00,VWS V14.00,2013-01-02 20:07:00,
2013-01-02 14:08:00,51.4,20.2,30.05,SSE,162,0.0,12.0,29,0.00,,---,0.00,VWS V14.00,2013-01-02 20:08:00,
2013-01-02 14:10:00,51.6,21.2,30.05,ESE,121,3.0,12.0,30,0.00,,---,0.00,VWS V14.00,2013-01-02 20:10:00,
2013-01-02 14:12:00,51.6,19.6,30.05,ESE,110,3.0,12.0,28,0.00,,---,0.00,VWS V14.00,2013-01-02 20:12:00,
2013-01-02 14:14:00,51.6,19.6,30.05,South,172,2.0,12.0,28,0.00,,---,0.00,VWS V14.00,2013-01-02 20:14:00,
2013-01-02 14:15:00,51.7,21.3,30.05,SSE,154,3.0,12.0,30,0.00,,---,0.00,VWS V14.00,2013-01-02 20:15:00,
2013-01-02 14:17:00,51.9,20.7,30.05,SSE,168,3.0,12.0,29,0.00,,---,0.00,VWS V14.00,2013-01-02 20:17:00,
2013-01-02 14:19:00,52.0,20.8,30.05,SSE,152,0.0,12.0,29,0.00,,---,0.00,VWS V14.00,2013-01-02 20:19:00,
2013-01-02 14:20:00,52.0,20.8,30.05,SSE,164,0.0,12.0,29,0.00,,---,0.00,VWS V14.00,2013-01-02 20:20:00,
2013-01-02 14:21:00,52.2,20.1,30.05,SSE,148,0.0,12.0,28,0.00,,---,0.00,VWS V14.00,2013-01-02 20:21:00,
2013-01-02 14:22:00,52.0,19.9,30.05,SE,141,5.0,12.0,28,0.00,,---,0.00,VWS V14.00,2013-01-02 20:22:00,
2013-01-02 14:24:00,52.2,20.1,30.05,ESE,117,3.0,12.0,28,0.00,,---,0.00,VWS V14.00,2013-01-02 20:24:00,
2013-01-02 14:25:00,52.3,20.2,30.05,SE,137,0.0,12.0,28,0.00,,---,0.00,VWS V14.00,2013-01-02 20:25:00,
2013-01-02 14:26:00,52.3,20.2,30.05,SE,144,0.0,12.0,28,0.00,,---,0.00,VWS V14.00,2013-01-02 20:26:00,
2013-01-02 14:27:00,52.5,20.4,30.05,SSE,148,0.0,12.0,28,0.00,,---,0.00,VWS V14.00,2013-01-02 20:27:00,
2013-01-02 14:30:00,52.8,19.8,30.04,ESE,121,7.0,12.0,27,0.00,,---,0.00,VWS V14.00,2013-01-02 20:30:00,
2013-01-02 14:31:00,52.9,19.9,30.04,SSE,164,1.0,7.0,27,0.00,,---,0.00,VWS V14.00,2013-01-02 20:31:00,
2013-01-02 14:33:00,53.1,20.9,30.04,SSE,155,0.0,7.0,28,0.00,,---,0.00,VWS V14.00,2013-01-02 20:33:00,
2013-01-02 14:34:00,52.6,21.3,30.04,South,186,5.0,8.0,29,0.00,,---,0.00,VWS V14.00,2013-01-02 20:34:00,
2013-01-02 14:36:00,52.5,20.4,30.04,SSW,195,2.0,8.0,28,0.00,,---,0.00,VWS V14.00,2013-01-02 20:36:00,
2013-01-02 14:37:00,52.3,20.2,30.04,South,175,6.0,8.0,28,0.00,,---,0.00,VWS V14.00,2013-01-02 20:37:00,
2013-01-02 14:40:00,52.5,20.4,30.04,SSE,160,5.0,8.0,28,0.00,,---,0.00,VWS V14.00,2013-01-02 20:40:00,
2013-01-02 14:41:00,52.3,20.2,30.04,SSE,150,5.0,8.0,28,0.00,,---,0.00,VWS V14.00,2013-01-02 20:41:00,
2013-01-02 14:43:00,52.5,20.4,30.04,ESE,120,0.0,8.0,28,0.00,,---,0.00,VWS V14.00,2013-01-02 20:43:00,
2013-01-02 14:45:00,52.3,20.2,30.04,SE,145,6.0,8.0,28,0.00,,---,0.00,VWS V14.00,2013-01-02 20:45:00,
2013-01-02 14:46:00,52.3,20.2,30.04,ESE,110,6.0,8.0,28,0.00,,---,0.00,VWS V14.00,2013-01-02 20:46:00,
2013-01-02 14:48:00,52.0,19.1,30.04,SE,145,3.0,10.0,27,0.00,,---,0.00,VWS V14.00,2013-01-02 20:48:00,
2013-01-02 14:50:00,51.7,21.3,30.04,SSE,148,2.0,10.0,30,0.00,,---,0.00,VWS V14.00,2013-01-02 20:50:00,
2013-01-02 14:51:00,51.7,20.5,30.04,ESE,116,0.0,10.0,29,0.00,,---,0.00,VWS V14.00,2013-01-02 20:51:00,
2013-01-02 14:53:00,52.2,20.9,30.04,ESE,113,5.0,10.0,29,0.00,,---,0.00,VWS V14.00,2013-01-02 20:53:00,
2013-01-02 14:55:00,52.2,21.7,30.04,SE,127,3.0,10.0,30,0.00,,---,0.00,VWS V14.00,2013-01-02 20:55:00,
2013-01-02 14:56:00,52.0,20.8,30.04,SE,127,1.0,10.0,29,0.00,,---,0.00,VWS V14.00,2013-01-02 20:56:00,
2013-01-02 14:58:00,52.0,20.8,30.04,SE,131,6.0,10.0,29,0.00,,---,0.00,VWS V14.00,2013-01-02 20:58:00,
2013-01-02 15:00:00,51.7,20.5,30.04,SE,126,3.0,6.0,29,0.00,,---,0.00,VWS V14.00,2013-01-02 21:00:00,
2013-01-02 15:01:00,51.9,21.5,30.04,ESE,119,2.0,6.0,30,0.00,,---,0.00,VWS V14.00,2013-01-02 21:01:00,
2013-01-02 15:03:00,52.0,20.8,30.04,ESE,113,0.0,6.0,29,0.00,,---,0.00,VWS V14.00,2013-01-02 21:03:00,
2013-01-02 15:05:00,52.2,21.7,30.04,SE,144,3.0,8.0,30,0.00,,---,0.00,VWS V14.00,2013-01-02 21:05:00,
2013-01-02 15:06:00,51.9,20.7,30.04,SE,124,5.0,8.0,29,0.00,,---,0.00,VWS V14.00,2013-01-02 21:06:00,
2013-01-02 15:08:00,51.9,20.7,30.04,SE,136,5.0,10.0,29,0.00,,---,0.00,VWS V14.00,2013-01-02 21:08:00,
2013-01-02 15:10:00,51.9,20.7,30.04,SSE,148,2.0,10.0,29,0.00,,---,0.00,VWS V14.00,2013-01-02 21:10:00,
2013-01-02 15:11:00,51.9,20.7,30.04,SSE,154,0.0,10.0,29,0.00,,---,0.00,VWS V14.00,2013-01-02 21:11:00,
2013-01-02 15:12:00,51.9,20.7,30.04,SSE,161,0.0,10.0,29,0.00,,---,0.00,VWS V14.00,2013-01-02 21:12:00,
2013-01-02 15:13:00,52.2,21.7,30.04,South,175,1.0,10.0,30,0.00,,---,0.00,VWS V14.00,2013-01-02 21:13:00,
2013-01-02 15:15:00,52.2,21.7,30.05,SSE,165,1.0,12.0,30,0.00,,---,0.00,VWS V14.00,2013-01-02 21:15:00,
2013-01-02 15:16:00,52.2,21.7,30.05,SE,124,2.0,12.0,30,0.00,,---,0.00,VWS V14.00,2013-01-02 21:16:00,
2013-01-02 15:17:00,52.2,21.7,30.05,ESE,123,1.0,12.0,30,0.00,,---,0.00,VWS V14.00,2013-01-02 21:17:00,
2013-01-02 15:18:00,52.2,21.7,30.05,SE,143,2.0,12.0,30,0.00,,---,0.00,VWS V14.00,2013-01-02 21:18:00,
2013-01-02 15:20:00,52.0,21.5,30.05,ESE,113,0.0,12.0,30,0.00,,---,0.00,VWS V14.00,2013-01-02 21:20:00,
2013-01-02 15:21:00,52.0,22.3,30.05,South,178,3.0,12.0,31,0.00,,---,0.00,VWS V14.00,2013-01-02 21:21:00,
2013-01-02 15:22:00,52.2,22.5,30.05,SSE,165,1.0,12.0,31,0.00,,---,0.00,VWS V14.00,2013-01-02 21:22:00,
2013-01-02 15:24:00,52.3,22.6,30.05,SSE,162,0.0,12.0,31,0.00,,---,0.00,VWS V14.00,2013-01-02 21:24:00,
2013-01-02 15:25:00,52.2,21.7,30.05,SSE,152,0.0,12.0,30,0.00,,---,0.00,VWS V14.00,2013-01-02 21:25:00,
2013-01-02 15:27:00,52.2,22.5,30.05,ESE,104,1.0,12.0,31,0.00,,---,0.00,VWS V14.00,2013-01-02 21:27:00,
2013-01-02 15:29:00,52.0,21.5,30.04,ESE,117,2.0,12.0,30,0.00,,---,0.00,VWS V14.00,2013-01-02 21:29:00,
2013-01-02 15:31:00,52.2,21.7,30.04,East,86,0.0,0.0,30,0.00,,---,0.00,VWS V14.00,2013-01-02 21:31:00,
2013-01-02 15:32:00,52.2,21.7,30.04,ENE,64,5.0,5.0,30,0.00,,---,0.00,VWS V14.00,2013-01-02 21:32:00,
2013-01-02 15:33:00,51.9,20.7,30.04,ENE,69,0.0,5.0,29,0.00,,---,0.00,VWS V14.00,2013-01-02 21:33:00,
2013-01-02 15:34:00,51.9,20.7,30.04,ENE,66,0.0,11.0,29,0.00,,---,0.00,VWS V14.00,2013-01-02 21:34:00,
2013-01-02 15:36:00,51.4,21.0,30.04,NE,34,8.0,11.0,30,0.00,,---,0.00,VWS V14.00,2013-01-02 21:36:00,
2013-01-02 15:37:00,51.0,20.7,30.04,NNE,28,0.0,11.0,30,0.00,,---,0.00,VWS V14.00,2013-01-02 21:37:00,
2013-01-02 15:38:00,51.0,20.7,30.04,NE,38,0.0,11.0,30,0.00,,---,0.00,VWS V14.00,2013-01-02 21:38:00,
2013-01-02 15:39:00,50.5,20.2,30.04,ENE,64,1.0,11.0,30,0.00,,---,0.00,VWS V14.00,2013-01-02 21:39:00,
2013-01-02 15:41:00,49.8,20.4,30.04,NE,56,0.0,11.0,31,0.00,,---,0.00,VWS V14.00,2013-01-02 21:41:00,
2013-01-02 15:42:00,49.5,20.1,30.04,ENE,61,2.0,11.0,31,0.00,,---,0.00,VWS V14.00,2013-01-02 21:42:00,
2013-01-02 15:43:00,49.4,20.0,30.04,NE,40,0.0,11.0,31,0.00,,---,0.00,VWS V14.00,2013-01-02 21:43:00,
2013-01-02 15:44:00,49.2,19.9,30.06,NE,41,0.0,11.0,31,0.00,,---,0.00,VWS V14.00,2013-01-02 21:44:00,
2013-01-02 15:46:00,48.9,20.4,30.06,ENE,66,8.0,11.0,32,0.00,,---,0.00,VWS V14.00,2013-01-02 21:46:00,
2013-01-02 15:47:00,48.5,20.0,30.06,NNE,32,0.0,11.0,32,0.00,,---,0.00,VWS V14.00,2013-01-02 21:47:00,
2013-01-02 15:48:00,48.2,20.5,30.06,NNE,13,5.0,12.0,33,0.00,,---,0.00,VWS V14.00,2013-01-02 21:48:00,
2013-01-02 15:49:00,48.0,20.3,30.06,NNE,27,4.0,12.0,33,0.00,,---,0.00,VWS V14.00,2013-01-02 21:49:00,
2013-01-02 15:51:00,47.9,19.5,30.06,NE,41,8.0,12.0,32,0.00,,---,0.00,VWS V14.00,2013-01-02 21:51:00,
2013-01-02 15:52:00,47.4,20.5,30.06,NE,42,11.0,12.0,34,0.00,,---,0.00,VWS V14.00,2013-01-02 21:52:00,
2013-01-02 15:53:00,47.1,20.2,30.06,NE,49,4.0,12.0,34,0.00,,---,0.00,VWS V14.00,2013-01-02 21:53:00,
2013-01-02 15:54:00,47.1,20.2,30.06,NE,55,5.0,12.0,34,0.00,,---,0.00,VWS V14.00,2013-01-02 21:54:00,
2013-01-02 15:56:00,47.3,21.0,30.06,NE,52,6.0,12.0,35,0.00,,---,0.00,VWS V14.00,2013-01-02 21:56:00,
2013-01-02 15:57:00,47.4,21.8,30.06,NE,47,0.0,12.0,36,0.00,,---,0.00,VWS V14.00,2013-01-02 21:57:00,
2013-01-02 15:58:00,47.6,20.6,30.06,NE,52,0.0,12.0,34,0.00,,---,0.00,VWS V14.00,2013-01-02 21:58:00,
2013-01-02 15:59:00,47.3,20.4,30.08,NE,42,5.0,12.0,34,0.00,,---,0.00,VWS V14.00,2013-01-02 21:59:00,
2013-01-02 16:01:00,46.8,20.6,30.08,NNE,18,5.0,10.0,35,0.00,,---,0.00,VWS V14.00,2013-01-02 22:01:00,
2013-01-02 16:02:00,46.8,21.3,30.08,NE,49,3.0,10.0,36,0.00,,---,0.00,VWS V14.00,2013-01-02 22:02:00,
2013-01-02 16:03:00,46.7,21.2,30.08,NNE,23,7.0,10.0,36,0.00,,---,0.00,VWS V14.00,2013-01-02 22:03:00,
2013-01-02 16:04:00,46.8,19.9,30.08,NE,35,5.0,10.0,34,0.00,,---,0.00,VWS V14.00,2013-01-02 22:04:00,
2013-01-02 16:06:00,46.7,19.8,30.08,NE,44,6.0,10.0,34,0.00,,---,0.00,VWS V14.00,2013-01-02 22:06:00,
2013-01-02 16:07:00,46.7,20.5,30.08,NE,38,6.0,10.0,35,0.00,,---,0.00,VWS V14.00,2013-01-02 22:07:00,
2013-01-02 16:08:00,46.5,21.0,30.08,NNE,24,6.0,12.0,36,0.00,,---,0.00,VWS V14.00,2013-01-02 22:08:00,
2013-01-02 16:09:00,46.5,21.0,30.08,NE,49,6.0,12.0,36,0.00,,---,0.00,VWS V14.00,2013-01-02 22:09:00,
2013-01-02 16:11:00,46.4,21.6,30.08,NE,34,6.0,12.0,37,0.00,,---,0.00,VWS V14.00,2013-01-02 22:11:00,
2013-01-02 16:12:00,46.2,21.4,30.08,NNE,21,8.0,12.0,37,0.00,,---,0.00,VWS V14.00,2013-01-02 22:12:00,
2013-01-02 16:13:00,46.1,21.3,30.08,NNE,25,6.0,12.0,37,0.00,,---,0.00,VWS V14.00,2013-01-02 22:13:00,
2013-01-02 16:15:00,46.1,20.0,30.09,NE,49,10.0,12.0,35,0.00,,---,0.00,VWS V14.00,2013-01-02 22:15:00,
2013-01-02 16:16:00,46.0,20.6,30.09,NNE,17,7.0,12.0,36,0.00,,---,0.00,VWS V14.00,2013-01-02 22:16:00,
2013-01-02 16:17:00,45.7,19.6,30.09,NNE,25,6.0,12.0,35,0.00,,---,0.00,VWS V14.00,2013-01-02 22:17:00,
2013-01-02 16:18:00,45.7,19.6,30.09,NNE,28,7.0,12.0,35,0.00,,---,0.00,VWS V14.00,2013-01-02 22:18:00,
2013-01-02 16:20:00,45.7,19.6,30.09,NE,49,3.0,12.0,35,0.00,,---,0.00,VWS V14.00,2013-01-02 22:20:00,
2013-01-02 16:21:00,45.7,19.6,30.09,NNE,30,0.0,12.0,35,0.00,,---,0.00,VWS V14.00,2013-01-02 22:21:00,
2013-01-02 16:22:00,45.8,19.7,30.09,NE,38,0.0,12.0,35,0.00,,---,0.00,VWS V14.00,2013-01-02 22:22:00,
2013-01-02 16:23:00,45.7,20.3,30.09,ENE,62,0.0,12.0,36,0.00,,---,0.00,VWS V14.00,2013-01-02 22:23:00,
2013-01-02 16:25:00,45.5,20.1,30.09,NE,44,0.0,12.0,36,0.00,,---,0.00,VWS V14.00,2013-01-02 22:25:00,
2013-01-02 16:26:00,45.5,20.8,30.09,ENE,58,0.0,12.0,37,0.00,,---,0.00,VWS V14.00,2013-01-02 22:26:00,
2013-01-02 16:27:00,45.5,20.8,30.09,NE,42,0.0,12.0,37,0.00,,---,0.00,VWS V14.00,2013-01-02 22:27:00,
2013-01-02 16:28:00,45.5,20.8,30.09,NE,51,7.0,12.0,37,0.00,,---,0.00,VWS V14.00,2013-01-02 22:28:00,
2013-01-02 16:31:00,44.9,19.6,30.11,ENE,62,5.0,11.0,36,0.00,,---,0.00,VWS V14.00,2013-01-02 22:31:00,
2013-01-02 16:32:00,44.6,20.6,30.11,NNE,28,5.0,11.0,38,0.00,,---,0.00,VWS V14.00,2013-01-02 22:32:00,
2013-01-02 16:33:00,44.6,20.0,30.11,ENE,66,4.0,11.0,37,0.00,,---,0.00,VWS V14.00,2013-01-02 22:33:00,
2013-01-02 16:36:00,44.6,21.2,30.11,NE,42,3.0,11.0,39,0.00,,---,0.00,VWS V14.00,2013-01-02 22:36:00,
2013-01-02 16:37:00,44.5,21.1,30.11,NNE,21,3.0,11.0,39,0.00,,---,0.00,VWS V14.00,2013-01-02 22:37:00,
2013-01-02 16:38:00,44.3,20.9,30.11,NE,47,2.0,11.0,39,0.00,,---,0.00,VWS V14.00,2013-01-02 22:38:00,
2013-01-02 16:41:00,44.2,20.8,30.11,NE,51,5.0,11.0,39,0.00,,---,0.00,VWS V14.00,2013-01-02 22:41:00,
2013-01-02 16:42:00,44.2,20.8,30.11,NE,44,4.0,11.0,39,0.00,,---,0.00,VWS V14.00,2013-01-02 22:42:00,
2013-01-02 16:43:00,44.1,20.7,30.11,NE,38,5.0,11.0,39,0.00,,---,0.00,VWS V14.00,2013-01-02 22:43:00,
2013-01-02 16:46:00,43.8,21.1,30.11,NE,42,5.0,11.0,40,0.00,,---,0.00,VWS V14.00,2013-01-02 22:46:00,
2013-01-02 16:48:00,43.9,20.0,30.11,NNE,31,5.0,11.0,38,0.00,,---,0.00,VWS V14.00,2013-01-02 22:48:00,
2013-01-02 16:51:00,43.6,21.5,30.11,ENE,66,5.0,11.0,41,0.00,,---,0.00,VWS V14.00,2013-01-02 22:51:00,
2013-01-02 16:52:00,43.5,21.4,30.11,NE,40,2.0,11.0,41,0.00,,---,0.00,VWS V14.00,2013-01-02 22:52:00,
2013-01-02 16:53:00,43.3,20.0,30.11,NE,48,6.0,11.0,39,0.00,,---,0.00,VWS V14.00,2013-01-02 22:53:00,
2013-01-02 16:57:00,43.3,21.2,30.11,NNE,23,3.0,11.0,41,0.00,,---,0.00,VWS V14.00,2013-01-02 22:57:00,
2013-01-02 16:58:00,43.2,19.9,30.11,ENE,62,6.0,11.0,39,0.00,,---,0.00,VWS V14.00,2013-01-02 22:58:00,
2013-01-02 17:02:00,42.9,21.4,30.13,NE,56,5.0,5.0,42,0.00,,---,0.00,VWS V14.00,2013-01-02 23:02:00,
2013-01-02 17:03:00,42.9,21.4,30.13,NE,56,5.0,5.0,42,0.00,,---,0.00,VWS V14.00,2013-01-02 23:03:00,
2013-01-02 17:07:00,42.9,21.4,30.13,ENE,66,9.0,10.0,42,0.00,,---,0.00,VWS V14.00,2013-01-02 23:07:00,
2013-01-02 17:08:00,42.9,21.4,30.13,ENE,66,9.0,10.0,42,0.00,,---,0.00,VWS V14.00,2013-01-02 23:08:00,
2013-01-02 17:09:00,42.9,21.4,30.13,ENE,66,9.0,10.0,42,0.00,,---,0.00,VWS V14.00,2013-01-02 23:09:00,
2013-01-02 17:12:00,42.3,20.9,30.13,NE,41,7.0,10.0,42,0.00,,---,0.00,VWS V14.00,2013-01-02 23:12:00,
2013-01-02 17:13:00,42.3,20.9,30.13,NE,41,7.0,10.0,42,0.00,,---,0.00,VWS V14.00,2013-01-02 23:13:00,
2013-01-02 17:14:00,42.1,20.7,30.13,NE,40,7.0,10.0,42,0.00,,---,0.00,VWS V14.00,2013-01-02 23:14:00,
2013-01-02 17:17:00,41.8,19.8,30.15,ENE,58,3.0,10.0,41,0.00,,---,0.00,VWS V14.00,2013-01-02 23:17:00,
2013-01-02 17:18:00,41.8,19.8,30.15,NE,47,4.0,10.0,41,0.00,,---,0.00,VWS V14.00,2013-01-02 23:18:00,
2013-01-02 17:19:00,41.8,19.8,30.15,NE,47,4.0,10.0,41,0.00,,---,0.00,VWS V14.00,2013-01-02 23:19:00,
2013-01-02 17:22:00,41.5,20.7,30.15,NE,38,5.0,10.0,43,0.00,,---,0.00,VWS V14.00,2013-01-02 23:22:00,
2013-01-02 17:23:00,41.5,20.7,30.15,NE,42,2.0,10.0,43,0.00,,---,0.00,VWS V14.00,2013-01-02 23:23:00,
2013-01-02 17:24:00,41.3,21.0,30.15,ENE,58,4.0,10.0,44,0.00,,---,0.00,VWS V14.00,2013-01-02 23:24:00,
2013-01-02 17:27:00,40.9,20.7,30.15,NE,34,3.0,10.0,44,0.00,,---,0.00,VWS V14.00,2013-01-02 23:27:00,
2013-01-02 17:28:00,40.9,20.7,30.15,NNE,32,3.0,10.0,44,0.00,,---,0.00,VWS V14.00,2013-01-02 23:28:00,
2013-01-02 17:29:00,40.9,20.7,30.16,NNE,32,5.0,10.0,44,0.00,,---,0.00,VWS V14.00,2013-01-02 23:29:00,
2013-01-02 17:32:00,40.6,20.4,30.16,NNE,28,8.0,8.0,44,0.00,,---,0.00,VWS V14.00,2013-01-02 23:32:00,
2013-01-02 17:33:00,40.6,20.4,30.16,NNE,27,6.0,8.0,44,0.00,,---,0.00,VWS V14.00,2013-01-02 23:33:00,
2013-01-02 17:34:00,40.6,20.4,30.16,NE,49,5.0,8.0,44,0.00,,---,0.00,VWS V14.00,2013-01-02 23:34:00,
2013-01-02 17:38:00,40.3,20.1,30.16,ENE,59,6.0,8.0,44,0.00,,---,0.00,VWS V14.00,2013-01-02 23:38:00,
2013-01-02 17:39:00,40.3,20.1,30.16,ENE,59,6.0,8.0,44,0.00,,---,0.00,VWS V14.00,2013-01-02 23:39:00,
2013-01-02 17:43:00,40.3,20.1,30.16,ENE,59,6.0,8.0,44,0.00,,---,0.00,VWS V14.00,2013-01-02 23:43:00,
2013-01-02 17:44:00,40.3,20.1,30.16,NE,51,0.0,8.0,44,0.00,,---,0.00,VWS V14.00,2013-01-02 23:44:00,
2013-01-02 17:48:00,40.3,21.7,30.17,NE,45,0.0,8.0,47,0.00,,---,0.00,VWS V14.00,2013-01-02 23:48:00,
2013-01-02 17:49:00,40.3,21.7,30.17,NE,45,0.0,8.0,47,0.00,,---,0.00,VWS V14.00,2013-01-02 23:49:00,
2013-01-02 17:53:00,40.3,21.7,30.17,NE,47,0.0,8.0,47,0.00,,---,0.00,VWS V14.00,2013-01-02 23:53:00,
2013-01-02 17:54:00,38.8,20.8,30.17,ENE,68,0.0,8.0,48,0.00,,---,0.00,VWS V14.00,2013-01-02 23:54:00,
2013-01-02 17:58:00,38.3,20.4,30.17,NE,41,0.0,8.0,48,0.00,,---,0.00,VWS V14.00,2013-01-02 23:58:00,
2013-01-02 17:59:00,38.3,20.4,30.18,NE,41,0.0,8.0,48,0.00,,---,0.00,VWS V14.00,2013-01-02 23:59:00,
2013-01-02 18:00:00,38.2,20.2,30.18,NE,41,0.0,8.0,48,0.00,,---,0.00,VWS V14.00,2013-01-03 00:00:00,
2013-01-02 18:03:00,37.9,20.5,30.18,NE,41,0.0,0.0,49,0.00,,---,0.00,VWS V14.00,2013-01-03 00:03:00,
2013-01-02 18:04:00,37.8,20.4,30.18,NE,41,0.0,0.0,49,0.00,,---,0.00,VWS V14.00,2013-01-03 00:04:00,
2013-01-02 18:05:00,37.8,20.4,30.18,NE,41,0.0,0.0,49,0.00,,---,0.00,VWS V14.00,2013-01-03 00:05:00,
2013-01-02 18:08:00,37.3,20.4,30.18,NE,41,0.0,0.0,50,0.00,,---,0.00,VWS V14.00,2013-01-03 00:08:00,
2013-01-02 18:09:00,37.3,20.4,30.18,NE,41,0.0,0.0,50,0.00,,---,0.00,VWS V14.00,2013-01-03 00:09:00,
2013-01-02 18:10:00,37.2,20.3,30.18,NE,41,0.0,0.0,50,0.00,,---,0.00,VWS V14.00,2013-01-03 00:10:00,
2013-01-02 18:13:00,36.9,20.0,30.18,NE,41,0.0,0.0,50,0.00,,---,0.00,VWS V14.00,2013-01-03 00:13:00,
2013-01-02 18:14:00,36.8,19.9,30.21,NE,41,0.0,0.0,50,0.00,,---,0.00,VWS V14.00,2013-01-03 00:14:00,
2013-01-02 18:15:00,36.8,19.9,30.21,NE,41,0.0,0.0,50,0.00,,---,0.00,VWS V14.00,2013-01-03 00:15:00,
2013-01-02 18:18:00,36.5,20.6,30.21,NE,41,0.0,0.0,52,0.00,,---,0.00,VWS V14.00,2013-01-03 00:18:00,
2013-01-02 18:19:00,36.3,20.4,30.21,NE,41,0.0,0.0,52,0.00,,---,0.00,VWS V14.00,2013-01-03 00:19:00,
2013-01-02 18:20:00,36.3,20.4,30.21,NE,41,0.0,0.0,52,0.00,,---,0.00,VWS V14.00,2013-01-03 00:20:00,
2013-01-02 18:23:00,36.2,20.3,30.21,NE,41,0.0,0.0,52,0.00,,---,0.00,VWS V14.00,2013-01-03 00:23:00,
2013-01-02 18:24:00,36.0,20.1,30.21,NE,41,0.0,0.0,52,0.00,,---,0.00,VWS V14.00,2013-01-03 00:24:00,
2013-01-02 18:25:00,36.0,20.1,30.21,NE,41,0.0,0.0,52,0.00,,---,0.00,VWS V14.00,2013-01-03 00:25:00,
2013-01-02 18:28:00,35.9,20.0,30.21,NE,41,0.0,0.0,52,0.00,,---,0.00,VWS V14.00,2013-01-03 00:28:00,
2013-01-02 18:29:00,35.8,19.9,30.22,NE,41,0.0,0.0,52,0.00,,---,0.00,VWS V14.00,2013-01-03 00:29:00,
2013-01-02 18:30:00,35.8,19.9,30.22,NE,41,0.0,0.0,52,0.00,,---,0.00,VWS V14.00,2013-01-03 00:30:00,
2013-01-02 18:34:00,35.3,19.9,30.22,NE,41,0.0,0.0,53,0.00,,---,0.00,VWS V14.00,2013-01-03 00:34:00,
2013-01-02 18:36:00,35.2,19.8,30.22,NE,41,0.0,0.0,53,0.00,,---,0.00,VWS V14.00,2013-01-03 00:36:00,
2013-01-02 18:39:00,35.0,20.0,30.22,NE,41,0.0,0.0,54,0.00,,---,0.00,VWS V14.00,2013-01-03 00:39:00,
2013-01-02 18:41:00,34.9,20.0,30.22,NE,41,0.0,0.0,54,0.00,,---,0.00,VWS V14.00,2013-01-03 00:41:00,
2013-01-02 18:44:00,34.6,19.7,30.23,NE,41,0.0,0.0,54,0.00,,---,0.00,VWS V14.00,2013-01-03 00:44:00,
2013-01-02 18:46:00,34.4,19.5,30.23,NE,41,0.0,0.0,54,0.00,,---,0.00,VWS V14.00,2013-01-03 00:46:00,
2013-01-02 18:47:00,34.4,19.5,30.23,NE,41,0.0,0.0,54,0.00,,---,0.00,VWS V14.00,2013-01-03 00:47:00,
2013-01-02 18:49:00,34.0,19.5,30.23,NE,41,0.0,0.0,55,0.00,,---,0.00,VWS V14.00,2013-01-03 00:49:00,
2013-01-02 18:51:00,33.7,19.3,30.23,NE,41,0.0,0.0,55,0.00,,---,0.00,VWS V14.00,2013-01-03 00:51:00,
2013-01-02 18:52:00,33.5,19.5,30.23,NE,41,0.0,0.0,56,0.00,,---,0.00,VWS V14.00,2013-01-03 00:52:00,
2013-01-02 18:54:00,32.9,18.9,30.23,NE,41,0.0,0.0,56,0.00,,---,0.00,VWS V14.00,2013-01-03 00:54:00,
2013-01-02 18:56:00,32.7,19.2,30.23,NE,41,0.0,0.0,57,0.00,,---,0.00,VWS V14.00,2013-01-03 00:56:00,
2013-01-02 18:57:00,32.5,19.0,30.23,NE,41,0.0,0.0,57,0.00,,---,0.00,VWS V14.00,2013-01-03 00:57:00,
2013-01-02 18:59:00,32.1,18.6,30.26,NE,41,0.0,0.0,57,0.00,,---,0.00,VWS V14.00,2013-01-03 00:59:00,
2013-01-02 19:01:00,31.9,18.8,30.26,NE,41,0.0,0.0,58,0.00,,---,0.00,VWS V14.00,2013-01-03 01:01:00,
2013-01-02 19:02:00,31.8,18.7,30.26,NE,41,0.0,0.0,58,0.00,,---,0.00,VWS V14.00,2013-01-03 01:02:00,
2013-01-02 19:04:00,31.5,18.8,30.26,NE,41,0.0,0.0,59,0.00,,---,0.00,VWS V14.00,2013-01-03 01:04:00,
2013-01-02 19:06:00,31.5,19.2,30.26,NE,41,0.0,0.0,60,0.00,,---,0.00,VWS V14.00,2013-01-03 01:06:00,
2013-01-02 19:07:00,31.3,19.0,30.26,NE,41,0.0,0.0,60,0.00,,---,0.00,VWS V14.00,2013-01-03 01:07:00,
2013-01-02 19:10:00,31.0,18.8,30.26,NE,41,0.0,0.0,60,0.00,,---,0.00,VWS V14.00,2013-01-03 01:10:00,
2013-01-02 19:11:00,30.9,18.7,30.26,NE,41,0.0,0.0,60,0.00,,---,0.00,VWS V14.00,2013-01-03 01:11:00,
2013-01-02 19:12:00,30.9,18.7,30.26,NE,41,0.0,0.0,60,0.00,,---,0.00,VWS V14.00,2013-01-03 01:12:00,
2013-01-02 19:15:00,30.4,18.2,30.26,NE,41,0.0,0.0,60,0.00,,---,0.00,VWS V14.00,2013-01-03 01:15:00,
2013-01-02 19:16:00,30.3,18.1,30.26,NE,41,0.0,0.0,60,0.00,,---,0.00,VWS V14.00,2013-01-03 01:16:00,
2013-01-02 19:17:00,30.3,18.5,30.26,NE,41,0.0,0.0,61,0.00,,---,0.00,VWS V14.00,2013-01-03 01:17:00,
2013-01-02 19:20:00,29.8,18.4,30.26,NE,41,0.0,0.0,62,0.00,,---,0.00,VWS V14.00,2013-01-03 01:20:00,
2013-01-02 19:21:00,29.7,18.3,30.26,NE,41,0.0,0.0,62,0.00,,---,0.00,VWS V14.00,2013-01-03 01:21:00,
2013-01-02 19:22:00,29.7,18.3,30.26,NE,41,0.0,0.0,62,0.00,,---,0.00,VWS V14.00,2013-01-03 01:22:00,
2013-01-02 19:25:00,29.3,18.3,30.26,NE,41,0.0,0.0,63,0.00,,---,0.00,VWS V14.00,2013-01-03 01:25:00,
2013-01-02 19:27:00,29.0,17.6,30.26,NE,41,0.0,0.0,62,0.00,,---,0.00,VWS V14.00,2013-01-03 01:27:00,
2013-01-02 19:30:00,28.7,18.4,30.28,NE,41,0.0,0.0,65,0.00,,---,0.00,VWS V14.00,2013-01-03 01:30:00,
2013-01-02 19:32:00,28.5,18.6,30.28,NE,41,0.0,0.0,66,0.00,,---,0.00,VWS V14.00,2013-01-03 01:32:00,
2013-01-02 19:36:00,28.4,18.1,30.28,NE,41,0.0,0.0,65,0.00,,---,0.00,VWS V14.00,2013-01-03 01:36:00,
2013-01-02 19:37:00,28.1,17.9,30.28,NE,41,0.0,0.0,65,0.00,,---,0.00,VWS V14.00,2013-01-03 01:37:00,
2013-01-02 19:41:00,27.8,17.9,30.28,NE,41,0.0,0.0,66,0.00,,---,0.00,VWS V14.00,2013-01-03 01:41:00,
2013-01-02 19:42:00,27.8,17.9,30.28,NE,41,0.0,0.0,66,0.00,,---,0.00,VWS V14.00,2013-01-03 01:42:00,
2013-01-02 19:47:00,27.3,17.8,30.30,NE,41,0.0,0.0,67,0.00,,---,0.00,VWS V14.00,2013-01-03 01:47:00,
2013-01-02 19:48:00,27.3,17.8,30.30,NE,41,0.0,0.0,67,0.00,,---,0.00,VWS V14.00,2013-01-03 01:48:00,
2013-01-02 19:52:00,27.2,17.7,30.30,NE,41,0.0,0.0,67,0.00,,---,0.00,VWS V14.00,2013-01-03 01:52:00,
2013-01-02 19:53:00,27.2,17.7,30.30,NE,41,0.0,0.0,67,0.00,,---,0.00,VWS V14.00,2013-01-03 01:53:00,
2013-01-02 19:57:00,26.9,17.4,30.30,NE,41,0.0,0.0,67,0.00,,---,0.00,VWS V14.00,2013-01-03 01:57:00,
2013-01-02 19:58:00,26.9,17.8,30.30,NE,41,0.0,0.0,68,0.00,,---,0.00,VWS V14.00,2013-01-03 01:58:00,
2013-01-02 20:02:00,26.7,17.9,30.31,NE,41,0.0,0.0,69,0.00,,---,0.00,VWS V14.00,2013-01-03 02:02:00,
2013-01-02 20:03:00,26.7,17.9,30.31,NE,41,0.0,0.0,69,0.00,,---,0.00,VWS V14.00,2013-01-03 02:03:00,
2013-01-02 20:07:00,26.6,17.8,30.31,NE,41,0.0,0.0,69,0.00,,---,0.00,VWS V14.00,2013-01-03 02:07:00,
2013-01-02 20:08:00,26.6,17.8,30.31,NE,41,0.0,0.0,69,0.00,,---,0.00,VWS V14.00,2013-01-03 02:08:00,
2013-01-02 20:12:00,26.0,16.6,30.31,NE,41,0.0,0.0,67,0.00,,---,0.00,VWS V14.00,2013-01-03 02:12:00,
2013-01-02 20:13:00,26.0,16.6,30.31,NE,41,0.0,0.0,67,0.00,,---,0.00,VWS V14.00,2013-01-03 02:13:00,
2013-01-02 20:17:00,25.7,16.6,30.30,NE,41,0.0,0.0,68,0.00,,---,0.00,VWS V14.00,2013-01-03 02:17:00,
2013-01-02 20:18:00,25.6,16.5,30.30,NE,41,0.0,0.0,68,0.00,,---,0.00,VWS V14.00,2013-01-03 02:18:00,
2013-01-02 20:22:00,25.4,17.3,30.30,NE,41,0.0,0.0,71,0.00,,---,0.00,VWS V14.00,2013-01-03 02:22:00,
2013-01-02 20:23:00,25.3,17.2,30.30,NE,41,0.0,0.0,71,0.00,,---,0.00,VWS V14.00,2013-01-03 02:23:00,
2013-01-02 20:27:00,25.0,16.3,30.30,NE,41,0.0,0.0,69,0.00,,---,0.00,VWS V14.00,2013-01-03 02:27:00,
2013-01-02 20:28:00,25.0,16.3,30.30,NE,41,0.0,0.0,69,0.00,,---,0.00,VWS V14.00,2013-01-03 02:28:00,
2013-01-02 20:32:00,24.7,16.3,30.33,NE,41,0.0,0.0,70,0.00,,---,0.00,VWS V14.00,2013-01-03 02:32:00,
2013-01-02 20:33:00,24.7,16.3,30.33,NE,41,0.0,0.0,70,0.00,,---,0.00,VWS V14.00,2013-01-03 02:33:00,
2013-01-02 20:34:00,24.5,16.1,30.33,NE,41,0.0,0.0,70,0.00,,---,0.00,VWS V14.00,2013-01-03 02:34:00,
2013-01-02 20:37:00,24.2,15.8,30.33,NE,41,0.0,0.0,70,0.00,,---,0.00,VWS V14.00,2013-01-03 02:37:00,
2013-01-02 20:38:00,24.2,16.2,30.33,NE,41,0.0,0.0,71,0.00,,---,0.00,VWS V14.00,2013-01-03 02:38:00,
2013-01-02 20:39:00,24.2,16.2,30.33,NE,41,0.0,0.0,71,0.00,,---,0.00,VWS V14.00,2013-01-03 02:39:00,
2013-01-02 20:43:00,23.9,16.2,30.33,NE,41,0.0,0.0,72,0.00,,---,0.00,VWS V14.00,2013-01-03 02:43:00,
2013-01-02 20:44:00,23.9,16.2,30.33,NE,41,0.0,0.0,72,0.00,,---,0.00,VWS V14.00,2013-01-03 02:44:00,
2013-01-02 20:48:00,23.6,16.2,30.33,NE,41,0.0,0.0,73,0.00,,---,0.00,VWS V14.00,2013-01-03 02:48:00,
2013-01-02 20:49:00,23.6,15.9,30.33,NE,41,0.0,0.0,72,0.00,,---,0.00,VWS V14.00,2013-01-03 02:49:00,
2013-01-02 20:53:00,23.3,15.9,30.33,NE,41,0.0,0.0,73,0.00,,---,0.00,VWS V14.00,2013-01-03 02:53:00,
2013-01-02 20:54:00,23.3,15.9,30.33,NE,41,0.0,0.0,73,0.00,,---,0.00,VWS V14.00,2013-01-03 02:54:00,
2013-01-02 20:58:00,23.0,15.3,30.33,NE,41,0.0,0.0,72,0.00,,---,0.00,VWS V14.00,2013-01-03 02:58:00,
2013-01-02 20:59:00,23.0,15.3,30.34,NE,41,0.0,0.0,72,0.00,,---,0.00,VWS V14.00,2013-01-03 02:59:00,
2013-01-02 21:03:00,22.9,15.2,30.34,NE,41,0.0,0.0,72,0.00,,---,0.00,VWS V14.00,2013-01-03 03:03:00,
2013-01-02 21:04:00,22.9,15.6,30.34,NE,41,0.0,0.0,73,0.00,,---,0.00,VWS V14.00,2013-01-03 03:04:00,
2013-01-02 21:05:00,22.7,15.4,30.34,NE,41,0.0,0.0,73,0.00,,---,0.00,VWS V14.00,2013-01-03 03:05:00,
2013-01-02 21:08:00,22.5,15.2,30.34,NE,41,0.0,0.0,73,0.00,,---,0.00,VWS V14.00,2013-01-03 03:08:00,
2013-01-02 21:09:00,22.5,15.2,30.34,NE,41,0.0,0.0,73,0.00,,---,0.00,VWS V14.00,2013-01-03 03:09:00,
2013-01-02 21:10:00,22.5,15.2,30.34,NE,41,0.0,0.0,73,0.00,,---,0.00,VWS V14.00,2013-01-03 03:10:00,
2013-01-02 21:14:00,22.4,15.1,30.25,NE,41,0.0,0.0,73,0.00,,---,0.00,VWS V14.00,2013-01-03 03:14:00,
2013-01-02 21:15:00,22.4,15.1,30.25,NE,41,0.0,0.0,73,0.00,,---,0.00,VWS V14.00,2013-01-03 03:15:00,
2013-01-02 21:19:00,22.2,15.2,30.25,NE,41,0.0,0.0,74,0.00,,---,0.00,VWS V14.00,2013-01-03 03:19:00,
2013-01-02 21:20:00,22.2,15.2,30.25,NE,41,0.0,0.0,74,0.00,,---,0.00,VWS V14.00,2013-01-03 03:20:00,
2013-01-02 21:24:00,22.2,15.2,30.25,NE,41,0.0,0.0,74,0.00,,---,0.00,VWS V14.00,2013-01-03 03:24:00,
2013-01-02 21:25:00,22.2,15.8,30.25,NE,41,0.0,0.0,76,0.00,,---,0.00,VWS V14.00,2013-01-03 03:25:00,
2013-01-02 21:30:00,22.1,15.1,30.25,NE,41,0.0,0.0,74,0.00,,---,0.00,VWS V14.00,2013-01-03 03:30:00,
2013-01-02 21:33:00,21.9,14.9,30.25,NE,41,0.0,0.0,74,0.00,,---,0.00,VWS V14.00,2013-01-03 03:33:00,
2013-01-02 21:35:00,22.1,15.7,30.25,NE,41,0.0,0.0,76,0.00,,---,0.00,VWS V14.00,2013-01-03 03:35:00,
2013-01-02 21:36:00,22.2,15.8,30.25,NE,41,0.0,0.0,76,0.00,,---,0.00,VWS V14.00,2013-01-03 03:36:00,
2013-01-02 21:39:00,22.5,16.4,30.25,NE,41,0.0,0.0,77,0.00,,---,0.00,VWS V14.00,2013-01-03 03:39:00,
2013-01-02 21:42:00,22.7,16.0,30.25,NE,41,0.0,0.0,75,0.00,,---,0.00,VWS V14.00,2013-01-03 03:42:00,
2013-01-02 21:45:00,22.5,15.5,30.25,NE,41,0.0,0.0,74,0.00,,---,0.00,VWS V14.00,2013-01-03 03:45:00,
2013-01-02 21:47:00,22.5,15.8,30.25,NE,41,0.0,0.0,75,0.00,,---,0.00,VWS V14.00,2013-01-03 03:47:00,
2013-01-02 21:50:00,22.5,16.1,30.25,NE,41,0.0,0.0,76,0.00,,---,0.00,VWS V14.00,2013-01-03 03:50:00,
2013-01-02 21:52:00,22.5,16.1,30.25,NE,41,0.0,0.0,76,0.00,,---,0.00,VWS V14.00,2013-01-03 03:52:00,
2013-01-02 21:53:00,22.5,16.1,30.25,NE,41,0.0,0.0,76,0.00,,---,0.00,VWS V14.00,2013-01-03 03:53:00,
2013-01-02 21:56:00,22.4,15.7,30.25,NE,41,0.0,0.0,75,0.00,,---,0.00,VWS V14.00,2013-01-03 03:56:00,
2013-01-02 21:57:00,22.4,15.7,30.25,NE,41,0.0,0.0,75,0.00,,---,0.00,VWS V14.00,2013-01-03 03:57:00,
2013-01-02 21:58:00,22.4,15.7,30.25,NE,41,0.0,0.0,75,0.00,,---,0.00,VWS V14.00,2013-01-03 03:58:00,
2013-01-02 22:01:00,22.7,16.6,30.26,NE,41,0.0,0.0,77,0.00,,---,0.00,VWS V14.00,2013-01-03 04:01:00,
2013-01-02 22:02:00,22.5,16.1,30.26,NE,41,0.0,0.0,76,0.00,,---,0.00,VWS V14.00,2013-01-03 04:02:00,
2013-01-02 22:03:00,22.5,16.1,30.26,NE,41,0.0,0.0,76,0.00,,---,0.00,VWS V14.00,2013-01-03 04:03:00,